Time;durP1;ratioP1;P1;durP2;ratioP2;P2;SDS_P1;SDS_P2;PMS_P1;PMS_P2;Temp;Humidity;BMP_temperature;BMP_pressure;BME280_temperature;BME280_humidity;BME280_pressure;Samples;Min_cycle;Max_cycle;Signal;HPM_P1;HPM_P2
2022/08/18 00:00:40;;;;;;;102.78;59.63;;;;;;;;;;4929041;29;20031;-83
2022/08/18 00:03:07;;;;;;;104.78;61.92;;;;;;;;;;4929921;29;20070;-83
2022/08/18 00:05:33;;;;;;;111.28;62.63;;;;;;;;;;4906378;29;20039;-83
2022/08/18 00:07:58;;;;;;;104.47;60.70;;;;;;;;;;4881852;29;20035;-81
2022/08/18 00:10:24;;;;;;;116.28;65.18;;;;;;;;;;4930409;29;20039;-83
2022/08/18 00:12:50;;;;;;;129.02;64.97;;;;;;;;;;4883793;29;20090;-82
2022/08/18 00:15:15;;;;;;;119.35;61.42;;;;;;;;;;4897464;29;20036;-83
2022/08/18 00:17:41;;;;;;;128.20;63.10;;;;;;;;;;4877431;29;20111;-83
2022/08/18 00:20:34;;;;;;;120.88;64.32;;;;;;;;;;4912232;29;20115;-82
2022/08/18 00:23:34;;;;;;;142.55;65.75;;;;;;;;;;4898321;29;20440;-82
2022/08/18 00:26:12;;;;;;;131.23;65.25;;;;;;;;;;4918645;29;20086;-82
2022/08/18 00:28:37;;;;;;;132.60;66.57;;;;;;;;;;4899833;29;20302;-82
2022/08/18 00:31:03;;;;;;;128.88;67.13;;;;;;;;;;4914545;29;20036;-82
2022/08/18 00:33:29;;;;;;;122.65;64.35;;;;;;;;;;4899731;29;20027;-82
2022/08/18 00:35:55;;;;;;;122.35;60.92;;;;;;;;;;4915421;29;20123;-81
2022/08/18 00:38:40;;;;;;;111.70;62.10;;;;;;;;;;4898530;29;20059;-82
2022/08/18 00:41:25;;;;;;;126.15;62.88;;;;;;;;;;4904826;29;20091;-83
2022/08/18 00:44:15;;;;;;;121.53;60.58;;;;;;;;;;4876637;29;20481;-82
2022/08/18 00:46:40;;;;;;;135.37;65.63;;;;;;;;;;4890123;29;20083;-82
2022/08/18 00:49:06;;;;;;;147.10;63.90;;;;;;;;;;4896017;29;20119;-82
2022/08/18 00:51:38;;;;;;;123.78;62.88;;;;;;;;;;4910566;29;20063;-81
2022/08/18 00:54:23;;;;;;;117.95;61.80;;;;;;;;;;4924439;29;20488;-82
2022/08/18 00:56:50;;;;;;;129.57;63.90;;;;;;;;;;4908905;29;20519;-82
2022/08/18 00:59:37;;;;;;;116.47;62.25;;;;;;;;;;4910092;29;20111;-81
2022/08/18 01:02:04;;;;;;;125.72;62.05;;;;;;;;;;4890894;29;20081;-82
2022/08/18 01:04:37;;;;;;;109.50;59.53;;;;;;;;;;4879636;29;20063;-81
2022/08/18 01:07:19;;;;;;;128.30;61.90;;;;;;;;;;4909358;29;20046;-81
2022/08/18 01:09:48;;;;;;;121.35;61.63;;;;;;;;;;4894354;29;20302;-82
2022/08/18 01:12:14;;;;;;;122.45;60.90;;;;;;;;;;4895134;29;20064;-82
2022/08/18 01:14:40;;;;;;;117.07;60.35;;;;;;;;;;4915341;29;20062;-81
2022/08/18 01:22:48;;;;;;;127.70;61.03;;;;;;;;;;4914165;29;20447;-82
2022/08/18 01:28:01;;;;;;;116.03;59.38;;;;;;;;;;4924306;29;20067;-82
2022/08/18 01:30:26;;;;;;;91.28;55.17;;;;;;;;;;4866404;29;20073;-81
2022/08/18 01:32:51;;;;;;;117.32;59.42;;;;;;;;;;4880362;29;20548;-81
2022/08/18 01:35:17;;;;;;;125.70;60.17;;;;;;;;;;4912631;29;20138;-82
2022/08/18 01:37:42;;;;;;;129.32;62.88;;;;;;;;;;4877662;29;20054;-82
2022/08/18 01:40:09;;;;;;;130.10;61.92;;;;;;;;;;4897904;29;20047;-82
2022/08/18 01:42:35;;;;;;;125.57;61.25;;;;;;;;;;4914752;29;20052;-82
2022/08/18 01:45:03;;;;;;;129.98;61.97;;;;;;;;;;4915534;29;20055;-81
2022/08/18 01:47:30;;;;;;;123.28;61.78;;;;;;;;;;4930067;29;20031;-81
2022/08/18 01:49:57;;;;;;;119.97;61.40;;;;;;;;;;4947418;29;20062;-81
2022/08/18 01:52:22;;;;;;;127.82;62.58;;;;;;;;;;4915888;29;20040;-81
2022/08/18 01:54:48;;;;;;;129.20;61.13;;;;;;;;;;4899680;29;20032;-82
2022/08/18 01:57:14;;;;;;;130.10;63.65;;;;;;;;;;4917267;29;20396;-81
2022/08/18 01:59:40;;;;;;;124.32;63.88;;;;;;;;;;4911255;29;20487;-81
2022/08/18 02:02:09;;;;;;;127.05;64.10;;;;;;;;;;4914028;29;20034;-81
2022/08/18 02:04:35;;;;;;;136.65;65.30;;;;;;;;;;4916444;29;20086;-81
2022/08/18 02:07:01;;;;;;;134.20;65.13;;;;;;;;;;4923486;29;20076;-81
2022/08/18 02:09:27;;;;;;;138.25;67.20;;;;;;;;;;4914410;29;20067;-81
2022/08/18 02:11:53;;;;;;;146.07;66.03;;;;;;;;;;4899241;29;20595;-82
2022/08/18 02:14:18;;;;;;;134.82;65.05;;;;;;;;;;4928193;29;20032;-82
2022/08/18 02:16:43;;;;;;;138.93;67.38;;;;;;;;;;4894296;29;20027;-82
2022/08/18 02:19:09;;;;;;;136.77;63.30;;;;;;;;;;4915978;29;20023;-82
2022/08/18 02:21:34;;;;;;;139.68;64.03;;;;;;;;;;4945992;28;20027;-82
2022/08/18 02:24:00;;;;;;;136.05;63.17;;;;;;;;;;4931255;29;20439;-81
2022/08/18 02:26:25;;;;;;;125.07;63.00;;;;;;;;;;4917173;29;20122;-81
2022/08/18 02:28:51;;;;;;;123.43;61.22;;;;;;;;;;4950042;29;20031;-80
2022/08/18 02:31:19;;;;;;;100.60;53.67;;;;;;;;;;4923103;29;20036;-80
2022/08/18 02:33:44;;;;;;;124.22;60.30;;;;;;;;;;4903516;29;20523;-80
2022/08/18 02:36:11;;;;;;;143.88;61.22;;;;;;;;;;4931522;29;20035;-81
2022/08/18 02:38:36;;;;;;;133.02;62.75;;;;;;;;;;4932636;29;20038;-80
2022/08/18 02:41:02;;;;;;;138.00;61.33;;;;;;;;;;4946077;29;20031;-81
2022/08/18 02:43:30;;;;;;;115.18;58.03;;;;;;;;;;4928821;29;20092;-81
2022/08/18 02:45:56;;;;;;;124.13;59.22;;;;;;;;;;4881577;29;20054;-81
2022/08/18 02:48:33;;;;;;;141.77;61.80;;;;;;;;;;4882219;29;20544;-81
2022/08/18 02:51:13;;;;;;;109.75;57.45;;;;;;;;;;4898043;29;20445;-81
2022/08/18 02:53:42;;;;;;;120.57;59.72;;;;;;;;;;4882282;29;20036;-80
2022/08/18 02:56:24;;;;;;;119.32;58.08;;;;;;;;;;4898147;29;20068;-81
2022/08/18 02:58:52;;;;;;;114.25;55.17;;;;;;;;;;4905599;29;20043;-81
2022/08/18 03:01:21;;;;;;;114.45;55.03;;;;;;;;;;4860992;29;20032;-81
2022/08/18 03:03:47;;;;;;;107.10;53.55;;;;;;;;;;4901922;29;20035;-81
2022/08/18 03:06:12;;;;;;;116.88;55.63;;;;;;;;;;4881360;29;20420;-81
2022/08/18 03:08:38;;;;;;;108.65;56.85;;;;;;;;;;4881343;29;20036;-80
2022/08/18 03:11:03;;;;;;;114.60;56.20;;;;;;;;;;4909276;29;20040;-81
2022/08/18 03:13:29;;;;;;;115.47;56.55;;;;;;;;;;4911329;29;20103;-81
2022/08/18 03:15:55;;;;;;;108.43;55.30;;;;;;;;;;4880887;29;20042;-81
2022/08/18 03:18:22;;;;;;;107.60;54.45;;;;;;;;;;4911763;29;20035;-80
2022/08/18 03:20:48;;;;;;;99.60;53.08;;;;;;;;;;4877604;29;20036;-80
2022/08/18 03:23:13;;;;;;;105.05;55.35;;;;;;;;;;4875930;29;20035;-81
2022/08/18 03:25:45;;;;;;;97.65;54.42;;;;;;;;;;4894171;29;20478;-80
2022/08/18 03:28:11;;;;;;;96.37;55.07;;;;;;;;;;4893268;29;20266;-81
2022/08/18 03:30:36;;;;;;;95.63;52.72;;;;;;;;;;4894879;29;20028;-80
2022/08/18 03:33:03;;;;;;;99.28;55.47;;;;;;;;;;4909855;29;20163;-80
2022/08/18 03:35:29;;;;;;;91.57;54.22;;;;;;;;;;4895778;29;20032;-80
2022/08/18 03:37:58;;;;;;;93.65;51.78;;;;;;;;;;4910537;29;20051;-80
2022/08/18 03:40:23;;;;;;;97.85;52.22;;;;;;;;;;4863560;29;20704;-81
2022/08/18 03:42:48;;;;;;;96.03;54.47;;;;;;;;;;4906081;29;20047;-81
2022/08/18 03:45:14;;;;;;;91.30;52.83;;;;;;;;;;4911794;29;20046;-80
2022/08/18 03:47:39;;;;;;;94.78;52.22;;;;;;;;;;4897302;29;20032;-82
2022/08/18 03:50:05;;;;;;;89.95;50.72;;;;;;;;;;4908915;29;20051;-82
2022/08/18 03:52:30;;;;;;;95.72;52.65;;;;;;;;;;4897966;29;20047;-81
2022/08/18 03:54:56;;;;;;;89.63;51.63;;;;;;;;;;4930269;29;20650;-82
2022/08/18 03:57:21;;;;;;;93.28;52.88;;;;;;;;;;4927159;29;20027;-80
2022/08/18 03:59:47;;;;;;;96.15;52.17;;;;;;;;;;4912483;29;20503;-81
2022/08/18 04:02:13;;;;;;;93.88;54.45;;;;;;;;;;4911707;29;20365;-83
2022/08/18 04:04:38;;;;;;;92.47;51.45;;;;;;;;;;4865549;29;20156;-84
2022/08/18 04:07:08;;;;;;;95.25;52.28;;;;;;;;;;4890115;29;20031;-84
2022/08/18 04:09:34;;;;;;;99.30;53.03;;;;;;;;;;4930262;29;20221;-83
2022/08/18 04:12:11;;;;;;;84.78;51.33;;;;;;;;;;4899826;29;20075;-83
2022/08/18 04:14:37;;;;;;;89.97;51.65;;;;;;;;;;4915517;29;20032;-83
2022/08/18 04:17:02;;;;;;;89.25;50.58;;;;;;;;;;4915484;29;20611;-85
2022/08/18 04:19:27;;;;;;;103.55;56.10;;;;;;;;;;4902814;29;20042;-84
2022/08/18 04:21:53;;;;;;;83.80;51.75;;;;;;;;;;4913985;29;20123;-85
2022/08/18 04:24:19;;;;;;;97.90;54.67;;;;;;;;;;4883573;29;20019;-85
2022/08/18 04:26:45;;;;;;;95.65;54.25;;;;;;;;;;4900912;29;20059;-85
2022/08/18 04:29:12;;;;;;;93.40;55.17;;;;;;;;;;4912729;29;20036;-84
2022/08/18 04:31:37;;;;;;;99.63;57.40;;;;;;;;;;4867843;29;20074;-84
2022/08/18 04:34:03;;;;;;;85.53;54.03;;;;;;;;;;4912158;29;20023;-84
2022/08/18 04:36:29;;;;;;;99.38;56.58;;;;;;;;;;4912358;29;20064;-84
2022/08/18 04:38:55;;;;;;;99.80;57.08;;;;;;;;;;4912228;29;20043;-84
2022/08/18 04:41:26;;;;;;;117.10;60.15;;;;;;;;;;4924165;29;20048;-83
2022/08/18 04:43:57;;;;;;;101.70;56.65;;;;;;;;;;4929572;29;20039;-84
2022/08/18 04:46:22;;;;;;;97.93;58.05;;;;;;;;;;4900261;29;20070;-84
2022/08/18 04:48:47;;;;;;;102.65;56.83;;;;;;;;;;4921584;29;20118;-84
2022/08/18 04:51:17;;;;;;;94.72;56.47;;;;;;;;;;4920097;29;20293;-84
2022/08/18 04:53:45;;;;;;;98.47;55.55;;;;;;;;;;4907899;29;20027;-84
2022/08/18 04:56:24;;;;;;;101.50;55.63;;;;;;;;;;4890705;29;20094;-84
2022/08/18 04:58:51;;;;;;;98.30;58.30;;;;;;;;;;4924218;29;20032;-84
2022/08/18 05:01:17;;;;;;;100.13;57.25;;;;;;;;;;4921329;29;20027;-85
2022/08/18 05:03:43;;;;;;;103.95;58.78;;;;;;;;;;4890097;29;20031;-84
2022/08/18 05:06:09;;;;;;;95.15;56.25;;;;;;;;;;4953163;28;20040;-85
2022/08/18 05:08:34;;;;;;;98.47;56.90;;;;;;;;;;4906041;29;20508;-84
2022/08/18 05:11:00;;;;;;;93.57;53.97;;;;;;;;;;4919981;29;20070;-84
2022/08/18 05:13:25;;;;;;;95.25;53.47;;;;;;;;;;4920591;29;20062;-84
2022/08/18 05:15:55;;;;;;;94.20;52.85;;;;;;;;;;4938032;29;20055;-85
2022/08/18 05:18:23;;;;;;;76.00;49.55;;;;;;;;;;4889968;29;20035;-84
2022/08/18 05:20:49;;;;;;;83.47;49.28;;;;;;;;;;4935465;29;20035;-85
2022/08/18 05:23:16;;;;;;;85.35;50.42;;;;;;;;;;4920147;29;20403;-84
2022/08/18 05:25:41;;;;;;;76.22;48.45;;;;;;;;;;4904527;29;20082;-85
2022/08/18 05:28:08;;;;;;;68.88;47.50;;;;;;;;;;4920622;29;20071;-85
2022/08/18 05:30:33;;;;;;;67.60;44.38;;;;;;;;;;4919396;29;20122;-85
2022/08/18 05:33:00;;;;;;;82.70;45.83;;;;;;;;;;4920590;29;20091;-85
2022/08/18 05:35:30;;;;;;;70.15;44.58;;;;;;;;;;4920482;29;20095;-84
2022/08/18 05:38:16;;;;;;;74.65;44.40;;;;;;;;;;4920534;29;20135;-85
2022/08/18 05:40:42;;;;;;;64.43;43.42;;;;;;;;;;4936217;29;20409;-86
2022/08/18 05:43:07;;;;;;;73.07;42.13;;;;;;;;;;4875333;29;20059;-85
2022/08/18 05:45:33;;;;;;;68.00;41.45;;;;;;;;;;4900840;29;20135;-81
2022/08/18 05:47:58;;;;;;;68.25;43.45;;;;;;;;;;4854610;29;20484;-84
2022/08/18 05:50:24;;;;;;;61.65;41.22;;;;;;;;;;4901313;29;20099;-81
2022/08/18 05:52:59;;;;;;;58.90;39.67;;;;;;;;;;4915572;29;20071;-80
2022/08/18 05:58:38;;;;;;;58.75;38.40;;;;;;;;;;4924539;29;20497;-81
2022/08/18 06:01:07;;;;;;;44.17;34.75;;;;;;;;;;4878643;29;20042;-82
2022/08/18 06:03:45;;;;;;;47.20;34.28;;;;;;;;;;4882635;29;20492;-81
2022/08/18 06:06:22;;;;;;;53.38;35.08;;;;;;;;;;4882274;29;20036;-82
2022/08/18 06:09:21;;;;;;;44.53;31.60;;;;;;;;;;4883965;29;20327;-82
2022/08/18 06:11:46;;;;;;;45.50;28.75;;;;;;;;;;4881705;29;20032;-82
2022/08/18 06:14:15;;;;;;;41.40;27.42;;;;;;;;;;4898410;29;20096;-81
2022/08/18 06:16:59;;;;;;;48.95;28.70;;;;;;;;;;4914448;29;20575;-81
2022/08/18 06:19:43;;;;;;;31.90;23.73;;;;;;;;;;4929618;29;20032;-81
2022/08/18 06:22:35;;;;;;;28.92;19.58;;;;;;;;;;4911593;29;20020;-81
2022/08/18 06:25:24;;;;;;;29.40;22.23;;;;;;;;;;4914699;29;20036;-81
2022/08/18 06:28:14;;;;;;;29.67;19.05;;;;;;;;;;4912833;29;20032;-81
2022/08/18 06:31:04;;;;;;;30.95;18.55;;;;;;;;;;4897209;29;20027;-81
2022/08/18 06:33:53;;;;;;;39.33;19.15;;;;;;;;;;4881372;29;20469;-82
2022/08/18 06:36:30;;;;;;;29.77;17.65;;;;;;;;;;4897946;29;20020;-81
2022/08/18 06:39:16;;;;;;;33.65;18.80;;;;;;;;;;4892333;29;20444;-82
2022/08/18 06:41:49;;;;;;;35.70;15.05;;;;;;;;;;4888594;29;20056;-82
2022/08/18 06:44:20;;;;;;;32.33;15.85;;;;;;;;;;4883694;29;20540;-82
2022/08/18 06:47:08;;;;;;;32.08;14.73;;;;;;;;;;4897958;29;20504;-81
2022/08/18 06:49:50;;;;;;;28.30;13.15;;;;;;;;;;4880957;29;20036;-81
2022/08/18 06:52:21;;;;;;;19.75;11.18;;;;;;;;;;4914345;29;20172;-82
2022/08/18 06:54:47;;;;;;;29.83;12.90;;;;;;;;;;4896978;29;20540;-82
2022/08/18 06:57:40;;;;;;;21.42;11.23;;;;;;;;;;4861835;29;20033;-82
2022/08/18 07:00:09;;;;;;;18.58;10.63;;;;;;;;;;4911130;29;20131;-81
2022/08/18 07:02:41;;;;;;;18.65;10.57;;;;;;;;;;4877489;29;20077;-82
2022/08/18 07:05:14;;;;;;;16.20;9.38;;;;;;;;;;4898766;29;20032;-82
2022/08/18 07:07:40;;;;;;;15.60;8.60;;;;;;;;;;4882432;29;20576;-81
2022/08/18 07:10:29;;;;;;;14.90;8.65;;;;;;;;;;4856251;29;20040;-81
2022/08/18 07:13:06;;;;;;;11.60;6.82;;;;;;;;;;4875065;29;21851;-82
2022/08/18 07:15:31;;;;;;;15.20;7.47;;;;;;;;;;4880034;29;20047;-82
2022/08/18 07:18:03;;;;;;;11.35;6.13;;;;;;;;;;4896622;29;20036;-82
2022/08/18 07:20:29;;;;;;;13.77;7.18;;;;;;;;;;4897396;29;20062;-82
2022/08/18 07:23:00;;;;;;;16.30;7.45;;;;;;;;;;4902878;29;20122;-83
2022/08/18 07:25:38;;;;;;;12.73;7.50;;;;;;;;;;4861533;29;20075;-82
2022/08/18 07:28:04;;;;;;;12.02;6.72;;;;;;;;;;4877806;29;20036;-82
2022/08/18 07:30:31;;;;;;;12.60;5.63;;;;;;;;;;4880522;29;20040;-82
2022/08/18 07:33:17;;;;;;;10.60;5.30;;;;;;;;;;4880844;29;20038;-82
2022/08/18 07:36:02;;;;;;;11.63;5.78;;;;;;;;;;4911734;29;20032;-83
2022/08/18 07:38:32;;;;;;;13.38;5.68;;;;;;;;;;4879017;29;20390;-83
2022/08/18 07:41:02;;;;;;;11.65;5.80;;;;;;;;;;4908825;29;20124;-82
2022/08/18 07:43:46;;;;;;;13.73;6.00;;;;;;;;;;4855544;29;20048;-83
2022/08/18 07:46:14;;;;;;;16.70;6.18;;;;;;;;;;4910033;29;20056;-82
2022/08/18 07:48:40;;;;;;;10.60;5.65;;;;;;;;;;4896034;29;20032;-82
2022/08/18 07:51:23;;;;;;;14.23;4.85;;;;;;;;;;4892798;29;20543;-82
2022/08/18 07:54:09;;;;;;;8.48;4.72;;;;;;;;;;4893328;29;20036;-82
2022/08/18 07:56:38;;;;;;;14.95;5.40;;;;;;;;;;4912210;29;20036;-83
2022/08/18 07:59:22;;;;;;;8.50;5.40;;;;;;;;;;4876232;29;20444;-83
2022/08/18 08:02:12;;;;;;;7.95;4.30;;;;;;;;;;4906731;29;20035;-81
2022/08/18 08:04:46;;;;;;;7.90;4.28;;;;;;;;;;4878830;29;20055;-81
2022/08/18 08:07:24;;;;;;;9.88;4.60;;;;;;;;;;4915983;29;20040;-81
2022/08/18 08:10:22;;;;;;;9.63;5.15;;;;;;;;;;4875109;29;20032;-81
2022/08/18 08:13:14;;;;;;;11.23;4.88;;;;;;;;;;4879790;29;20132;-81
2022/08/18 08:16:04;;;;;;;9.95;5.18;;;;;;;;;;4878321;29;20084;-82
2022/08/18 08:18:40;;;;;;;12.60;5.40;;;;;;;;;;4895999;29;20512;-82
2022/08/18 08:21:16;;;;;;;14.18;6.32;;;;;;;;;;4894550;29;20040;-81
2022/08/18 08:23:54;;;;;;;12.45;5.75;;;;;;;;;;4880929;29;20504;-81
2022/08/18 08:26:57;;;;;;;10.35;5.35;;;;;;;;;;4879302;29;20163;-81
2022/08/18 08:29:31;;;;;;;12.18;4.70;;;;;;;;;;4863191;29;20043;-82
2022/08/18 08:32:04;;;;;;;9.32;5.47;;;;;;;;;;4886098;29;20040;-81
2022/08/18 08:34:40;;;;;;;10.55;5.10;;;;;;;;;;4887003;29;20035;-81
2022/08/18 08:37:09;;;;;;;10.18;5.13;;;;;;;;;;4879852;29;20089;-82
2022/08/18 08:39:44;;;;;;;8.77;5.03;;;;;;;;;;4881667;29;20059;-81
2022/08/18 08:42:36;;;;;;;11.80;5.38;;;;;;;;;;4915424;29;20052;-80
2022/08/18 08:45:26;;;;;;;10.57;4.95;;;;;;;;;;4913556;29;20613;-81
2022/08/18 08:48:22;;;;;;;9.30;3.95;;;;;;;;;;4909467;29;20187;-80
2022/08/18 08:51:29;;;;;;;9.88;4.78;;;;;;;;;;4944111;29;20035;-81
2022/08/18 08:53:59;;;;;;;9.07;5.22;;;;;;;;;;4909718;29;20058;-82
2022/08/18 08:56:29;;;;;;;8.68;5.55;;;;;;;;;;4913044;29;20032;-81
2022/08/18 08:59:04;;;;;;;9.50;5.57;;;;;;;;;;4928028;29;20167;-82
2022/08/18 09:01:35;;;;;;;8.70;5.10;;;;;;;;;;4929535;29;20070;-82
2022/08/18 09:04:13;;;;;;;13.15;4.50;;;;;;;;;;4913032;29;20036;-82
2022/08/18 09:06:44;;;;;;;6.43;3.35;;;;;;;;;;4927810;29;20417;-82
2022/08/18 09:09:15;;;;;;;6.88;3.60;;;;;;;;;;4897534;29;20554;-82
2022/08/18 09:11:50;;;;;;;10.75;3.42;;;;;;;;;;4946033;28;20420;-82
2022/08/18 09:14:22;;;;;;;7.90;3.90;;;;;;;;;;4913654;29;20040;-81
2022/08/18 09:17:09;;;;;;;12.55;5.15;;;;;;;;;;4928784;29;20035;-82
2022/08/18 09:19:51;;;;;;;9.70;4.47;;;;;;;;;;4915663;29;20040;-82
2022/08/18 09:22:29;;;;;;;6.57;3.70;;;;;;;;;;4908105;29;20030;-82
2022/08/18 09:24:54;;;;;;;9.52;3.85;;;;;;;;;;4909334;29;20043;-82
2022/08/18 09:27:28;;;;;;;6.72;3.90;;;;;;;;;;4898112;29;20480;-82
2022/08/18 09:30:01;;;;;;;4.15;2.10;;;;;;;;;;4930735;29;20435;-81
2022/08/18 09:32:26;;;;;;;5.45;2.92;;;;;;;;;;4929921;29;20059;-81
2022/08/18 09:35:10;;;;;;;6.47;3.00;;;;;;;;;;4944039;28;20055;-82
2022/08/18 09:41:30;;;;;;;4.68;2.50;;;;;;;;;;4902250;29;20039;-82
2022/08/18 09:43:35;;;;;;;5.13;2.10;;;;;;;;;;4906228;29;20055;-82
2022/08/18 09:46:03;;;;;;;5.65;2.33;;;;;;;;;;4948639;29;20052;-82
2022/08/18 09:48:38;;;;;;;5.60;2.80;;;;;;;;;;4948785;29;20042;-82
2022/08/18 09:51:14;;;;;;;6.97;2.90;;;;;;;;;;4899608;29;20032;-82
2022/08/18 09:53:45;;;;;;;6.28;2.78;;;;;;;;;;4945810;29;20499;-82
2022/08/18 09:56:15;;;;;;;4.88;2.22;;;;;;;;;;4953974;28;20038;-82
2022/08/18 09:58:48;;;;;;;4.32;2.13;;;;;;;;;;4917735;29;20814;-81
2022/08/18 10:01:29;;;;;;;4.47;2.10;;;;;;;;;;4942057;29;20035;-82
2022/08/18 10:04:12;;;;;;;4.75;2.10;;;;;;;;;;4910345;29;20032;-82
2022/08/18 10:06:38;;;;;;;5.25;2.05;;;;;;;;;;4928116;29;20049;-83
2022/08/18 10:09:14;;;;;;;6.05;2.80;;;;;;;;;;4927593;29;20372;-82
2022/08/18 10:11:57;;;;;;;3.53;2.10;;;;;;;;;;4919944;29;20024;-81
2022/08/18 10:14:28;;;;;;;7.32;2.60;;;;;;;;;;4926561;29;20023;-82
2022/08/18 10:17:12;;;;;;;3.70;1.85;;;;;;;;;;4901656;29;20050;-83
2022/08/18 10:19:48;;;;;;;4.70;2.63;;;;;;;;;;4921770;29;20127;-82
2022/08/18 10:22:13;;;;;;;5.85;2.35;;;;;;;;;;4923173;29;20031;-82
2022/08/18 10:24:44;;;;;;;7.72;2.58;;;;;;;;;;4922465;29;20082;-81
2022/08/18 10:27:41;;;;;;;4.88;2.65;;;;;;;;;;4923049;29;20035;-82
2022/08/18 10:30:07;;;;;;;3.60;2.60;;;;;;;;;;4908801;29;20107;-82
2022/08/18 10:32:40;;;;;;;5.65;2.17;;;;;;;;;;4917940;29;20039;-82
2022/08/18 10:35:25;;;;;;;5.47;2.15;;;;;;;;;;4924390;29;20449;-83
2022/08/18 10:37:51;;;;;;;6.45;2.13;;;;;;;;;;4902084;29;20065;-81
2022/08/18 10:40:18;;;;;;;3.53;1.60;;;;;;;;;;4919702;29;20477;-82
2022/08/18 10:42:48;;;;;;;3.58;1.63;;;;;;;;;;4932072;29;20040;-82
2022/08/18 10:45:25;;;;;;;3.88;1.60;;;;;;;;;;4928953;29;20187;-81
2022/08/18 10:48:03;;;;;;;3.38;1.42;;;;;;;;;;4913590;29;20408;-82
2022/08/18 10:50:29;;;;;;;5.47;1.90;;;;;;;;;;4933665;29;20039;-82
2022/08/18 10:53:18;;;;;;;4.20;1.70;;;;;;;;;;4931164;29;20435;-81
2022/08/18 10:55:48;;;;;;;5.57;1.48;;;;;;;;;;4913519;29;20052;-81
2022/08/18 10:58:35;;;;;;;3.33;1.60;;;;;;;;;;4898843;29;20035;-82
2022/08/18 11:01:23;;;;;;;4.28;1.88;;;;;;;;;;4898494;29;20047;-82
2022/08/18 11:04:02;;;;;;;10.15;1.88;;;;;;;;;;4913817;29;20039;-81
2022/08/18 11:06:28;;;;;;;3.50;1.77;;;;;;;;;;4900244;29;20061;-82
2022/08/18 11:08:59;;;;;;;4.05;1.65;;;;;;;;;;4894429;29;20099;-82
2022/08/18 11:11:43;;;;;;;3.40;1.65;;;;;;;;;;4910993;29;20036;-82
2022/08/18 11:14:22;;;;;;;4.55;2.28;;;;;;;;;;4908126;29;20131;-81
2022/08/18 11:17:01;;;;;;;4.80;1.30;;;;;;;;;;4928427;29;20479;-81
2022/08/18 11:19:27;;;;;;;6.32;1.85;;;;;;;;;;4937410;29;20032;-81
2022/08/18 11:21:52;;;;;;;5.07;1.90;;;;;;;;;;4894270;29;20679;-82
2022/08/18 11:24:30;;;;;;;5.57;1.83;;;;;;;;;;4895142;29;20294;-82
2022/08/18 11:27:00;;;;;;;3.75;1.88;;;;;;;;;;4892993;29;20128;-82
2022/08/18 11:29:29;;;;;;;5.30;2.15;;;;;;;;;;4915029;29;20036;-82
2022/08/18 11:32:26;;;;;;;5.55;2.25;;;;;;;;;;4927466;29;20394;-81
2022/08/18 11:35:04;;;;;;;5.50;2.33;;;;;;;;;;4925477;29;20526;-81
2022/08/18 11:37:36;;;;;;;6.65;2.33;;;;;;;;;;4914361;29;20023;-81
2022/08/18 11:40:04;;;;;;;4.47;1.98;;;;;;;;;;4914046;29;20116;-82
2022/08/18 11:42:32;;;;;;;5.07;2.22;;;;;;;;;;4910200;29;20040;-81
2022/08/18 11:45:17;;;;;;;4.32;2.17;;;;;;;;;;4922891;29;20039;-81
2022/08/18 11:48:08;;;;;;;5.55;1.77;;;;;;;;;;4930006;29;20038;-82
2022/08/18 11:50:33;;;;;;;4.78;1.60;;;;;;;;;;4929089;29;20400;-81
2022/08/18 11:53:21;;;;;;;3.15;1.42;;;;;;;;;;4913875;29;20126;-82
2022/08/18 11:56:10;;;;;;;5.25;1.38;;;;;;;;;;4928746;29;20051;-82
2022/08/18 11:58:56;;;;;;;2.95;1.35;;;;;;;;;;4925924;29;20032;-81
2022/08/18 12:01:47;;;;;;;3.03;1.50;;;;;;;;;;4912451;29;20042;-82
2022/08/18 12:04:12;;;;;;;2.60;1.20;;;;;;;;;;4920149;29;20122;-81
2022/08/18 12:06:59;;;;;;;4.95;1.33;;;;;;;;;;4909125;29;20039;-81
2022/08/18 12:09:43;;;;;;;2.15;1.00;;;;;;;;;;4915528;29;21670;-82
2022/08/18 12:12:21;;;;;;;5.05;1.55;;;;;;;;;;4922906;29;20092;-82
2022/08/18 12:15:11;;;;;;;3.70;1.40;;;;;;;;;;4907788;29;20034;-81
2022/08/18 12:17:37;;;;;;;5.35;1.88;;;;;;;;;;4926817;29;20506;-81
2022/08/18 12:20:06;;;;;;;3.40;1.77;;;;;;;;;;4928552;29;20023;-83
2022/08/18 12:22:31;;;;;;;4.38;1.92;;;;;;;;;;4923078;29;20459;-82
2022/08/18 12:24:57;;;;;;;3.35;1.70;;;;;;;;;;4929685;29;20040;-82
2022/08/18 12:27:23;;;;;;;5.07;1.95;;;;;;;;;;4913759;29;20031;-82
2022/08/18 12:29:51;;;;;;;4.18;1.70;;;;;;;;;;4912834;29;20023;-81
2022/08/18 12:32:17;;;;;;;3.58;1.77;;;;;;;;;;4926583;29;20031;-81
2022/08/18 12:34:42;;;;;;;4.20;1.75;;;;;;;;;;4913759;29;20441;-82
2022/08/18 12:37:08;;;;;;;2.80;1.73;;;;;;;;;;4912823;29;20114;-81
2022/08/18 12:39:34;;;;;;;4.35;2.10;;;;;;;;;;4905372;29;20028;-82
2022/08/18 12:42:00;;;;;;;5.03;2.00;;;;;;;;;;4911465;29;20055;-82
2022/08/18 12:44:25;;;;;;;3.03;1.40;;;;;;;;;;4911434;29;20806;-81
2022/08/18 12:46:52;;;;;;;3.67;1.73;;;;;;;;;;4922888;29;20126;-81
2022/08/18 12:49:22;;;;;;;4.90;1.63;;;;;;;;;;4927778;29;20024;-82
2022/08/18 12:51:47;;;;;;;3.20;1.48;;;;;;;;;;4922360;29;20036;-82
2022/08/18 12:54:13;;;;;;;4.45;1.85;;;;;;;;;;4921462;29;20384;-82
2022/08/18 12:56:38;;;;;;;4.90;1.55;;;;;;;;;;4915184;29;20043;-81
2022/08/18 12:59:04;;;;;;;5.13;1.38;;;;;;;;;;4898619;29;20403;-81
2022/08/18 13:01:31;;;;;;;3.00;1.23;;;;;;;;;;4913695;29;20487;-81
2022/08/18 13:03:58;;;;;;;3.10;1.20;;;;;;;;;;4930548;29;20048;-81
2022/08/18 13:06:23;;;;;;;2.20;1.30;;;;;;;;;;4914975;29;20039;-82
2022/08/18 13:08:49;;;;;;;3.70;1.50;;;;;;;;;;4915990;29;20086;-81
2022/08/18 13:11:15;;;;;;;4.50;1.90;;;;;;;;;;4917886;29;20042;-81
2022/08/18 13:13:41;;;;;;;3.08;1.40;;;;;;;;;;4888438;29;20035;-82
2022/08/18 13:16:09;;;;;;;3.72;1.88;;;;;;;;;;4912595;29;20053;-81
2022/08/18 13:18:35;;;;;;;3.75;1.60;;;;;;;;;;4945804;29;20055;-82
2022/08/18 13:21:01;;;;;;;9.55;2.03;;;;;;;;;;4929384;29;20559;-81
2022/08/18 13:23:27;;;;;;;2.90;1.67;;;;;;;;;;4913312;29;20028;-81
2022/08/18 13:25:53;;;;;;;3.42;1.45;;;;;;;;;;4925419;29;20119;-81
2022/08/18 13:28:18;;;;;;;5.03;1.88;;;;;;;;;;4915682;29;20028;-83
2022/08/18 13:30:45;;;;;;;5.97;1.90;;;;;;;;;;4917329;29;20487;-82
2022/08/18 13:33:10;;;;;;;4.70;2.05;;;;;;;;;;4928261;29;20125;-82
2022/08/18 13:35:35;;;;;;;7.25;1.95;;;;;;;;;;4941427;28;20110;-82
2022/08/18 13:38:01;;;;;;;2.58;1.30;;;;;;;;;;4933036;29;20174;-82
2022/08/18 13:40:26;;;;;;;5.18;1.75;;;;;;;;;;4932717;29;20372;-82
2022/08/18 13:42:52;;;;;;;3.20;1.30;;;;;;;;;;4927150;28;20136;-82
2022/08/18 13:45:19;;;;;;;2.97;1.50;;;;;;;;;;4894425;29;20067;-82
2022/08/18 13:47:45;;;;;;;3.97;1.60;;;;;;;;;;4912147;29;20084;-82
2022/08/18 13:50:11;;;;;;;4.07;1.55;;;;;;;;;;4931989;29;20039;-82
2022/08/18 13:52:37;;;;;;;5.05;1.60;;;;;;;;;;4932150;29;20569;-83
2022/08/18 13:55:04;;;;;;;3.15;1.58;;;;;;;;;;4932483;29;20039;-83
2022/08/18 13:57:30;;;;;;;3.42;1.80;;;;;;;;;;4901267;29;20034;-83
2022/08/18 13:59:56;;;;;;;5.50;1.40;;;;;;;;;;4917338;29;20098;-83
2022/08/18 14:02:21;;;;;;;5.55;2.20;;;;;;;;;;4930616;29;20523;-82
2022/08/18 14:04:48;;;;;;;3.47;1.90;;;;;;;;;;4928638;29;20455;-83
2022/08/18 14:07:13;;;;;;;5.63;1.77;;;;;;;;;;4885331;29;20484;-82
2022/08/18 14:09:38;;;;;;;3.78;1.55;;;;;;;;;;4904745;29;20055;-83
2022/08/18 14:12:05;;;;;;;5.70;1.70;;;;;;;;;;4922874;29;20569;-82
2022/08/18 14:14:32;;;;;;;4.07;2.13;;;;;;;;;;4928633;29;20043;-82
2022/08/18 14:16:57;;;;;;;4.38;1.52;;;;;;;;;;4916690;29;20039;-83
2022/08/18 14:27:35;;;;;;;3.65;1.58;;;;;;;;;;4946735;29;20066;-82
2022/08/18 14:30:05;;;;;;;3.13;1.67;;;;;;;;;;4916428;29;20043;-82
2022/08/18 14:32:30;;;;;;;2.85;1.20;;;;;;;;;;4928503;29;20065;-82
2022/08/18 14:34:57;;;;;;;2.03;1.20;;;;;;;;;;4900238;29;20023;-82
2022/08/18 14:37:22;;;;;;;3.92;1.58;;;;;;;;;;4945638;29;20042;-82
2022/08/18 14:39:49;;;;;;;4.47;1.67;;;;;;;;;;4885544;29;20031;-82
2022/08/18 14:42:14;;;;;;;2.83;1.35;;;;;;;;;;4914328;29;20056;-82
2022/08/18 14:44:40;;;;;;;6.93;1.63;;;;;;;;;;4902976;29;20032;-82
2022/08/18 14:47:05;;;;;;;4.97;1.55;;;;;;;;;;4915229;29;20114;-83
2022/08/18 14:49:32;;;;;;;3.28;1.55;;;;;;;;;;4917478;29;20531;-83
2022/08/18 14:51:58;;;;;;;3.00;1.20;;;;;;;;;;4928861;29;20031;-83
2022/08/18 14:54:23;;;;;;;4.50;1.83;;;;;;;;;;4911956;29;20048;-83
2022/08/18 14:56:49;;;;;;;3.47;1.63;;;;;;;;;;4909317;29;20036;-83
2022/08/18 14:59:14;;;;;;;4.28;2.08;;;;;;;;;;4910162;29;20063;-83
2022/08/18 15:01:39;;;;;;;2.90;1.80;;;;;;;;;;4927374;29;20038;-83
2022/08/18 15:04:05;;;;;;;4.47;1.75;;;;;;;;;;4914644;29;20127;-83
2022/08/18 15:06:30;;;;;;;3.80;1.60;;;;;;;;;;4932577;29;20383;-82
2022/08/18 15:08:56;;;;;;;3.92;1.80;;;;;;;;;;4922517;29;20066;-82
2022/08/18 15:11:23;;;;;;;5.60;1.52;;;;;;;;;;4914010;29;20067;-82
2022/08/18 15:13:49;;;;;;;2.95;1.73;;;;;;;;;;4930292;29;20032;-82